sensor_id;sensor_type;location;lat;lon;timestamp;temperature;humidity
1614;DHT22;800;48.824;9.346;2023-05-15T00:02:24;19.00;52.60
1614;DHT22;800;48.824;9.346;2023-05-15T00:04:49;19.00;52.50
1614;DHT22;800;48.824;9.346;2023-05-15T00:07:15;19.00;52.60
1614;DHT22;800;48.824;9.346;2023-05-15T00:09:41;18.90;52.90
1614;DHT22;800;48.824;9.346;2023-05-15T00:12:07;18.90;53.40
1614;DHT22;800;48.824;9.346;2023-05-15T00:14:32;18.90;53.50
1614;DHT22;800;48.824;9.346;2023-05-15T00:16:58;18.90;53.60
1614;DHT22;800;48.824;9.346;2023-05-15T00:19:23;18.90;53.70
1614;DHT22;800;48.824;9.346;2023-05-15T00:21:49;18.90;53.80
1614;DHT22;800;48.824;9.346;2023-05-15T00:24:14;18.90;53.70
1614;DHT22;800;48.824;9.346;2023-05-15T00:26:40;18.80;53.60
1614;DHT22;800;48.824;9.346;2023-05-15T00:29:06;18.80;54.30
1614;DHT22;800;48.824;9.346;2023-05-15T00:31:31;18.80;53.80
1614;DHT22;800;48.824;9.346;2023-05-15T00:33:58;18.70;54.40
1614;DHT22;800;48.824;9.346;2023-05-15T00:36:23;18.70;53.90
1614;DHT22;800;48.824;9.346;2023-05-15T00:38:50;18.60;54.00
1614;DHT22;800;48.824;9.346;2023-05-15T00:41:17;18.60;54.00
1614;DHT22;800;48.824;9.346;2023-05-15T00:43:43;18.60;54.20
1614;DHT22;800;48.824;9.346;2023-05-15T00:46:11;18.60;54.60
1614;DHT22;800;48.824;9.346;2023-05-15T00:48:38;18.70;54.50
1614;DHT22;800;48.824;9.346;2023-05-15T00:51:04;18.60;54.70
1614;DHT22;800;48.824;9.346;2023-05-15T00:53:29;18.60;55.30
1614;DHT22;800;48.824;9.346;2023-05-15T00:55:57;18.60;55.20
1614;DHT22;800;48.824;9.346;2023-05-15T00:58:24;18.60;55.50
1614;DHT22;800;48.824;9.346;2023-05-15T01:00:52;18.70;55.50
1614;DHT22;800;48.824;9.346;2023-05-15T01:03:18;18.70;55.20
1614;DHT22;800;48.824;9.346;2023-05-15T01:05:44;18.70;55.20
1614;DHT22;800;48.824;9.346;2023-05-15T01:08:21;18.80;55.10
1614;DHT22;800;48.824;9.346;2023-05-15T01:10:48;18.80;54.80
1614;DHT22;800;48.824;9.346;2023-05-15T01:13:15;18.80;54.70
1614;DHT22;800;48.824;9.346;2023-05-15T01:15:41;18.80;54.90
1614;DHT22;800;48.824;9.346;2023-05-15T01:18:06;18.80;55.20
1614;DHT22;800;48.824;9.346;2023-05-15T01:21:26;18.80;55.10
1614;DHT22;800;48.824;9.346;2023-05-15T01:29:28;19.00;54.90
1614;DHT22;800;48.824;9.346;2023-05-15T01:32:03;19.00;54.70
1614;DHT22;800;48.824;9.346;2023-05-15T01:34:56;19.00;54.50
1614;DHT22;800;48.824;9.346;2023-05-15T01:37:28;19.00;54.40
1614;DHT22;800;48.824;9.346;2023-05-15T01:40:00;19.00;54.40
1614;DHT22;800;48.824;9.346;2023-05-15T01:42:30;19.00;54.40
1614;DHT22;800;48.824;9.346;2023-05-15T01:45:02;19.00;54.40
1614;DHT22;800;48.824;9.346;2023-05-15T01:47:46;19.00;54.40
1614;DHT22;800;48.824;9.346;2023-05-15T01:50:15;19.00;54.40
1614;DHT22;800;48.824;9.346;2023-05-15T01:52:45;19.00;54.30
1614;DHT22;800;48.824;9.346;2023-05-15T01:55:12;19.00;54.40
1614;DHT22;800;48.824;9.346;2023-05-15T01:57:40;19.00;54.40
1614;DHT22;800;48.824;9.346;2023-05-15T02:00:07;19.00;54.40
1614;DHT22;800;48.824;9.346;2023-05-15T02:02:34;19.00;54.60
1614;DHT22;800;48.824;9.346;2023-05-15T02:05:01;19.00;54.50
1614;DHT22;800;48.824;9.346;2023-05-15T02:07:27;19.00;54.50
1614;DHT22;800;48.824;9.346;2023-05-15T02:09:53;19.00;54.40
1614;DHT22;800;48.824;9.346;2023-05-15T02:12:20;19.00;54.10
1614;DHT22;800;48.824;9.346;2023-05-15T02:14:48;19.00;54.20
1614;DHT22;800;48.824;9.346;2023-05-15T02:17:14;18.90;54.30
1614;DHT22;800;48.824;9.346;2023-05-15T02:19:40;18.90;54.50
1614;DHT22;800;48.824;9.346;2023-05-15T02:22:06;18.90;54.50
1614;DHT22;800;48.824;9.346;2023-05-15T02:24:31;18.90;54.40
1614;DHT22;800;48.824;9.346;2023-05-15T02:32:49;19.00;54.70
1614;DHT22;800;48.824;9.346;2023-05-15T02:35:37;19.00;54.60
1614;DHT22;800;48.824;9.346;2023-05-15T02:38:10;19.00;54.70
1614;DHT22;800;48.824;9.346;2023-05-15T02:40:38;19.10;54.70
1614;DHT22;800;48.824;9.346;2023-05-15T02:43:04;19.10;54.60
1614;DHT22;800;48.824;9.346;2023-05-15T02:45:31;19.10;54.60
1614;DHT22;800;48.824;9.346;2023-05-15T02:47:58;19.10;54.40
1614;DHT22;800;48.824;9.346;2023-05-15T02:50:24;19.20;54.50
1614;DHT22;800;48.824;9.346;2023-05-15T02:52:50;19.20;54.70
1614;DHT22;800;48.824;9.346;2023-05-15T02:55:16;19.30;54.40
1614;DHT22;800;48.824;9.346;2023-05-15T02:57:41;19.30;54.10
1614;DHT22;800;48.824;9.346;2023-05-15T03:00:07;19.30;54.10
1614;DHT22;800;48.824;9.346;2023-05-15T03:02:36;19.20;54.20
1614;DHT22;800;48.824;9.346;2023-05-15T03:05:01;19.20;54.10
1614;DHT22;800;48.824;9.346;2023-05-15T03:07:27;19.20;54.00
1614;DHT22;800;48.824;9.346;2023-05-15T03:09:53;19.10;54.10
1614;DHT22;800;48.824;9.346;2023-05-15T03:12:18;19.10;54.30
1614;DHT22;800;48.824;9.346;2023-05-15T03:14:44;19.10;54.60
1614;DHT22;800;48.824;9.346;2023-05-15T03:17:10;19.10;54.60
1614;DHT22;800;48.824;9.346;2023-05-15T03:19:35;19.10;54.60
1614;DHT22;800;48.824;9.346;2023-05-15T03:22:01;19.20;54.60
1614;DHT22;800;48.824;9.346;2023-05-15T03:24:26;19.20;54.60
1614;DHT22;800;48.824;9.346;2023-05-15T03:26:52;19.20;54.40
1614;DHT22;800;48.824;9.346;2023-05-15T03:29:17;19.20;54.30
1614;DHT22;800;48.824;9.346;2023-05-15T03:31:43;19.20;54.20
1614;DHT22;800;48.824;9.346;2023-05-15T03:34:08;19.20;54.30
1614;DHT22;800;48.824;9.346;2023-05-15T03:36:34;19.20;54.20
1614;DHT22;800;48.824;9.346;2023-05-15T03:38:59;19.20;54.40
1614;DHT22;800;48.824;9.346;2023-05-15T03:41:25;19.30;54.50
1614;DHT22;800;48.824;9.346;2023-05-15T03:43:52;19.30;54.40
1614;DHT22;800;48.824;9.346;2023-05-15T03:46:17;19.30;54.30
1614;DHT22;800;48.824;9.346;2023-05-15T03:48:43;19.30;54.40
1614;DHT22;800;48.824;9.346;2023-05-15T03:51:08;19.30;54.30
1614;DHT22;800;48.824;9.346;2023-05-15T03:53:34;19.30;54.30
1614;DHT22;800;48.824;9.346;2023-05-15T03:55:59;19.30;54.20
1614;DHT22;800;48.824;9.346;2023-05-15T03:58:25;19.20;54.20
1614;DHT22;800;48.824;9.346;2023-05-15T04:00:51;19.20;54.40
1614;DHT22;800;48.824;9.346;2023-05-15T04:03:16;19.20;54.60
1614;DHT22;800;48.824;9.346;2023-05-15T04:05:43;19.20;54.90
1614;DHT22;800;48.824;9.346;2023-05-15T04:08:08;19.20;54.80
1614;DHT22;800;48.824;9.346;2023-05-15T04:10:35;19.20;54.70
1614;DHT22;800;48.824;9.346;2023-05-15T04:13:00;19.20;54.70
1614;DHT22;800;48.824;9.346;2023-05-15T04:15:26;19.20;54.70
1614;DHT22;800;48.824;9.346;2023-05-15T04:17:53;19.20;54.80
1614;DHT22;800;48.824;9.346;2023-05-15T04:20:20;19.30;54.90
1614;DHT22;800;48.824;9.346;2023-05-15T04:22:47;19.40;54.80
1614;DHT22;800;48.824;9.346;2023-05-15T04:25:14;19.40;54.60
1614;DHT22;800;48.824;9.346;2023-05-15T04:27:41;19.40;54.60
1614;DHT22;800;48.824;9.346;2023-05-15T04:30:07;19.50;54.70
1614;DHT22;800;48.824;9.346;2023-05-15T04:32:33;19.50;54.50
1614;DHT22;800;48.824;9.346;2023-05-15T04:35:03;19.50;54.50
1614;DHT22;800;48.824;9.346;2023-05-15T04:37:37;19.50;54.80
1614;DHT22;800;48.824;9.346;2023-05-15T04:40:03;19.60;54.70
1614;DHT22;800;48.824;9.346;2023-05-15T04:42:30;19.70;54.70
1614;DHT22;800;48.824;9.346;2023-05-15T04:44:56;19.70;54.30
1614;DHT22;800;48.824;9.346;2023-05-15T04:47:21;19.80;54.30
1614;DHT22;800;48.824;9.346;2023-05-15T04:49:47;19.80;54.40
1614;DHT22;800;48.824;9.346;2023-05-15T04:52:14;19.90;54.20
1614;DHT22;800;48.824;9.346;2023-05-15T04:54:40;20.00;54.10
1614;DHT22;800;48.824;9.346;2023-05-15T04:57:06;20.00;54.10
1614;DHT22;800;48.824;9.346;2023-05-15T04:59:32;20.00;54.00
1614;DHT22;800;48.824;9.346;2023-05-15T05:01:57;20.10;54.00
1614;DHT22;800;48.824;9.346;2023-05-15T05:04:23;20.10;53.90
1614;DHT22;800;48.824;9.346;2023-05-15T05:06:49;20.20;53.90
1614;DHT22;800;48.824;9.346;2023-05-15T05:09:14;20.00;53.60
1614;DHT22;800;48.824;9.346;2023-05-15T05:11:40;20.00;54.00
1614;DHT22;800;48.824;9.346;2023-05-15T05:14:10;20.00;53.90
1614;DHT22;800;48.824;9.346;2023-05-15T05:16:36;20.00;54.00
1614;DHT22;800;48.824;9.346;2023-05-15T05:19:01;20.00;53.70
1614;DHT22;800;48.824;9.346;2023-05-15T05:21:27;20.10;53.60
1614;DHT22;800;48.824;9.346;2023-05-15T05:23:53;20.10;53.60
1614;DHT22;800;48.824;9.346;2023-05-15T05:26:18;20.10;53.50
1614;DHT22;800;48.824;9.346;2023-05-15T05:28:44;20.00;53.50
1614;DHT22;800;48.824;9.346;2023-05-15T05:31:09;20.00;53.50
1614;DHT22;800;48.824;9.346;2023-05-15T05:33:35;20.00;53.30
1614;DHT22;800;48.824;9.346;2023-05-15T05:36:01;20.00;53.40
1614;DHT22;800;48.824;9.346;2023-05-15T05:38:26;20.00;53.60
1614;DHT22;800;48.824;9.346;2023-05-15T05:40:52;20.00;53.60
1614;DHT22;800;48.824;9.346;2023-05-15T05:43:18;19.90;53.40
1614;DHT22;800;48.824;9.346;2023-05-15T05:45:45;19.90;53.50
1614;DHT22;800;48.824;9.346;2023-05-15T05:48:10;20.00;53.30
1614;DHT22;800;48.824;9.346;2023-05-15T05:50:37;20.00;53.30
1614;DHT22;800;48.824;9.346;2023-05-15T05:53:03;20.00;53.30
1614;DHT22;800;48.824;9.346;2023-05-15T05:55:29;20.00;53.30
1614;DHT22;800;48.824;9.346;2023-05-15T05:57:54;20.00;53.40
1614;DHT22;800;48.824;9.346;2023-05-15T06:00:20;20.00;53.50
1614;DHT22;800;48.824;9.346;2023-05-15T06:02:46;20.00;53.50
1614;DHT22;800;48.824;9.346;2023-05-15T06:05:11;20.00;53.70
1614;DHT22;800;48.824;9.346;2023-05-15T06:07:37;20.10;53.90
1614;DHT22;800;48.824;9.346;2023-05-15T06:10:03;20.10;54.10
1614;DHT22;800;48.824;9.346;2023-05-15T06:12:29;20.10;54.00
1614;DHT22;800;48.824;9.346;2023-05-15T06:14:55;20.10;54.30
1614;DHT22;800;48.824;9.346;2023-05-15T06:17:20;20.20;54.30
1614;DHT22;800;48.824;9.346;2023-05-15T06:19:46;20.30;54.30
1614;DHT22;800;48.824;9.346;2023-05-15T06:22:11;20.30;54.40
1614;DHT22;800;48.824;9.346;2023-05-15T06:24:37;20.40;54.50
1614;DHT22;800;48.824;9.346;2023-05-15T06:27:03;20.30;54.30
1614;DHT22;800;48.824;9.346;2023-05-15T06:29:28;20.30;54.50
1614;DHT22;800;48.824;9.346;2023-05-15T06:31:54;20.20;54.60
1614;DHT22;800;48.824;9.346;2023-05-15T06:34:19;20.30;54.70
1614;DHT22;800;48.824;9.346;2023-05-15T06:36:45;20.30;55.10
1614;DHT22;800;48.824;9.346;2023-05-15T06:39:10;20.40;54.60
1614;DHT22;800;48.824;9.346;2023-05-15T06:41:37;20.50;54.30
1614;DHT22;800;48.824;9.346;2023-05-15T06:44:03;20.50;54.40
1614;DHT22;800;48.824;9.346;2023-05-15T06:46:29;20.50;54.10
1614;DHT22;800;48.824;9.346;2023-05-15T06:48:55;20.70;53.90
1614;DHT22;800;48.824;9.346;2023-05-15T06:51:21;20.60;53.80
1614;DHT22;800;48.824;9.346;2023-05-15T06:53:47;20.60;54.10
1614;DHT22;800;48.824;9.346;2023-05-15T06:56:12;20.70;54.20
1614;DHT22;800;48.824;9.346;2023-05-15T06:58:38;20.70;53.70
1614;DHT22;800;48.824;9.346;2023-05-15T07:01:04;20.80;53.20
1614;DHT22;800;48.824;9.346;2023-05-15T07:03:30;20.90;53.10
1614;DHT22;800;48.824;9.346;2023-05-15T07:05:56;21.00;53.00
1614;DHT22;800;48.824;9.346;2023-05-15T07:08:22;21.10;52.80
1614;DHT22;800;48.824;9.346;2023-05-15T07:10:48;21.00;53.10
1614;DHT22;800;48.824;9.346;2023-05-15T07:13:16;21.10;52.80
1614;DHT22;800;48.824;9.346;2023-05-15T07:15:45;21.10;52.20
1614;DHT22;800;48.824;9.346;2023-05-15T07:18:11;21.00;52.30
1614;DHT22;800;48.824;9.346;2023-05-15T07:20:36;21.10;52.20
1614;DHT22;800;48.824;9.346;2023-05-15T07:23:02;21.20;52.40
1614;DHT22;800;48.824;9.346;2023-05-15T07:25:28;21.40;52.00
1614;DHT22;800;48.824;9.346;2023-05-15T07:27:53;21.50;51.00
1614;DHT22;800;48.824;9.346;2023-05-15T07:30:19;21.40;51.20
1614;DHT22;800;48.824;9.346;2023-05-15T07:32:45;21.60;51.20
1614;DHT22;800;48.824;9.346;2023-05-15T07:35:11;21.50;51.00
1614;DHT22;800;48.824;9.346;2023-05-15T07:37:37;21.40;50.60
1614;DHT22;800;48.824;9.346;2023-05-15T07:40:03;21.10;51.40
1614;DHT22;800;48.824;9.346;2023-05-15T07:42:29;21.40;51.40
1614;DHT22;800;48.824;9.346;2023-05-15T07:44:54;21.70;51.40
1614;DHT22;800;48.824;9.346;2023-05-15T07:47:20;21.90;50.90
1614;DHT22;800;48.824;9.346;2023-05-15T07:49:46;22.10;50.80
1614;DHT22;800;48.824;9.346;2023-05-15T07:52:11;22.30;50.30
1614;DHT22;800;48.824;9.346;2023-05-15T07:54:37;22.50;49.90
1614;DHT22;800;48.824;9.346;2023-05-15T07:57:04;22.50;49.70
1614;DHT22;800;48.824;9.346;2023-05-15T07:59:29;22.60;49.40
1614;DHT22;800;48.824;9.346;2023-05-15T08:01:55;22.60;49.10
1614;DHT22;800;48.824;9.346;2023-05-15T08:04:21;22.80;49.20
1614;DHT22;800;48.824;9.346;2023-05-15T08:06:46;22.60;48.80
1614;DHT22;800;48.824;9.346;2023-05-15T08:09:12;22.50;48.80
1614;DHT22;800;48.824;9.346;2023-05-15T08:11:37;22.60;48.30
1614;DHT22;800;48.824;9.346;2023-05-15T08:14:03;22.60;48.50
1614;DHT22;800;48.824;9.346;2023-05-15T08:16:29;22.70;49.00
1614;DHT22;800;48.824;9.346;2023-05-15T08:18:54;22.70;48.90
1614;DHT22;800;48.824;9.346;2023-05-15T08:21:25;22.70;48.50
1614;DHT22;800;48.824;9.346;2023-05-15T08:23:51;22.80;48.80
1614;DHT22;800;48.824;9.346;2023-05-15T08:26:17;23.00;49.30
1614;DHT22;800;48.824;9.346;2023-05-15T08:28:43;23.30;49.10
1614;DHT22;800;48.824;9.346;2023-05-15T08:31:08;23.50;49.20
1614;DHT22;800;48.824;9.346;2023-05-15T08:33:34;23.70;48.80
1614;DHT22;800;48.824;9.346;2023-05-15T08:35:59;23.90;47.90
1614;DHT22;800;48.824;9.346;2023-05-15T08:38:25;24.00;46.90
1614;DHT22;800;48.824;9.346;2023-05-15T08:40:52;24.10;46.70
1614;DHT22;800;48.824;9.346;2023-05-15T08:43:20;24.20;45.60
1614;DHT22;800;48.824;9.346;2023-05-15T08:45:48;24.30;45.80
1614;DHT22;800;48.824;9.346;2023-05-15T08:48:16;24.50;45.60
1614;DHT22;800;48.824;9.346;2023-05-15T08:50:43;24.70;46.80
1614;DHT22;800;48.824;9.346;2023-05-15T08:53:13;24.90;46.50
1614;DHT22;800;48.824;9.346;2023-05-15T08:55:39;25.20;45.30
1614;DHT22;800;48.824;9.346;2023-05-15T08:58:06;25.40;45.30
1614;DHT22;800;48.824;9.346;2023-05-15T09:00:32;25.50;44.40
1614;DHT22;800;48.824;9.346;2023-05-15T09:02:59;25.40;43.50
1614;DHT22;800;48.824;9.346;2023-05-15T09:05:28;25.20;44.80
1614;DHT22;800;48.824;9.346;2023-05-15T09:07:56;25.30;44.20
1614;DHT22;800;48.824;9.346;2023-05-15T09:10:23;25.40;43.30
1614;DHT22;800;48.824;9.346;2023-05-15T09:12:51;25.20;42.90
1614;DHT22;800;48.824;9.346;2023-05-15T09:15:18;25.10;43.80
1614;DHT22;800;48.824;9.346;2023-05-15T09:17:48;25.30;44.90
1614;DHT22;800;48.824;9.346;2023-05-15T09:20:31;25.40;44.50
1614;DHT22;800;48.824;9.346;2023-05-15T09:22:58;25.60;44.40
1614;DHT22;800;48.824;9.346;2023-05-15T09:25:41;25.50;44.10
1614;DHT22;800;48.824;9.346;2023-05-15T09:28:25;25.80;42.90
1614;DHT22;800;48.824;9.346;2023-05-15T09:31:03;26.10;42.10
1614;DHT22;800;48.824;9.346;2023-05-15T09:33:36;26.40;42.40
1614;DHT22;800;48.824;9.346;2023-05-15T09:36:03;26.60;41.60
1614;DHT22;800;48.824;9.346;2023-05-15T09:38:32;26.70;41.40
1614;DHT22;800;48.824;9.346;2023-05-15T09:41:02;26.90;41.70
1614;DHT22;800;48.824;9.346;2023-05-15T09:43:29;26.90;40.40
1614;DHT22;800;48.824;9.346;2023-05-15T09:45:57;26.90;40.20
1614;DHT22;800;48.824;9.346;2023-05-15T09:48:23;26.90;40.60
1614;DHT22;800;48.824;9.346;2023-05-15T09:50:48;27.00;40.40
1614;DHT22;800;48.824;9.346;2023-05-15T09:53:14;27.10;40.30
1614;DHT22;800;48.824;9.346;2023-05-15T09:55:41;26.90;40.90
1614;DHT22;800;48.824;9.346;2023-05-15T09:58:12;27.00;40.40
1614;DHT22;800;48.824;9.346;2023-05-15T10:00:39;27.20;40.90
1614;DHT22;800;48.824;9.346;2023-05-15T10:03:06;27.10;40.10
1614;DHT22;800;48.824;9.346;2023-05-15T10:05:33;26.90;39.50
1614;DHT22;800;48.824;9.346;2023-05-15T10:08:00;26.70;38.60
1614;DHT22;800;48.824;9.346;2023-05-15T10:10:27;26.70;38.80
1614;DHT22;800;48.824;9.346;2023-05-15T10:12:54;26.50;39.30
1614;DHT22;800;48.824;9.346;2023-05-15T10:15:21;26.30;39.90
1614;DHT22;800;48.824;9.346;2023-05-15T10:17:48;26.30;40.40
1614;DHT22;800;48.824;9.346;2023-05-15T10:20:19;26.40;41.00
1614;DHT22;800;48.824;9.346;2023-05-15T10:22:47;26.50;40.20
1614;DHT22;800;48.824;9.346;2023-05-15T10:27:53;26.70;39.20
1614;DHT22;800;48.824;9.346;2023-05-15T10:30:19;26.70;40.40
1614;DHT22;800;48.824;9.346;2023-05-15T10:32:46;26.90;38.70
1614;DHT22;800;48.824;9.346;2023-05-15T10:35:13;27.00;40.80
1614;DHT22;800;48.824;9.346;2023-05-15T10:37:39;27.20;40.30
1614;DHT22;800;48.824;9.346;2023-05-15T10:40:07;27.10;39.50
1614;DHT22;800;48.824;9.346;2023-05-15T10:42:33;26.90;40.70
1614;DHT22;800;48.824;9.346;2023-05-15T10:45:00;26.70;40.20
1614;DHT22;800;48.824;9.346;2023-05-15T10:47:29;26.70;40.30
1614;DHT22;800;48.824;9.346;2023-05-15T10:49:55;26.80;40.30
1614;DHT22;800;48.824;9.346;2023-05-15T10:52:21;26.90;39.20
1614;DHT22;800;48.824;9.346;2023-05-15T10:54:48;26.90;39.20
1614;DHT22;800;48.824;9.346;2023-05-15T10:57:14;26.80;39.50
1614;DHT22;800;48.824;9.346;2023-05-15T10:59:39;26.90;39.20
1614;DHT22;800;48.824;9.346;2023-05-15T11:02:22;26.80;38.00
1614;DHT22;800;48.824;9.346;2023-05-15T11:04:59;26.70;37.70
1614;DHT22;800;48.824;9.346;2023-05-15T11:07:25;26.80;38.30
1614;DHT22;800;48.824;9.346;2023-05-15T11:09:55;27.10;39.30
1614;DHT22;800;48.824;9.346;2023-05-15T11:12:21;27.40;37.30
1614;DHT22;800;48.824;9.346;2023-05-15T11:17:21;27.50;35.40
1614;DHT22;800;48.824;9.346;2023-05-15T11:22:18;28.00;34.40
1614;DHT22;800;48.824;9.346;2023-05-15T11:25:19;28.00;35.90
1614;DHT22;800;48.824;9.346;2023-05-15T11:27:43;28.30;36.10
1614;DHT22;800;48.824;9.346;2023-05-15T11:30:16;28.50;34.90
1614;DHT22;800;48.824;9.346;2023-05-15T11:40:46;28.70;35.30
1614;DHT22;800;48.824;9.346;2023-05-15T11:43:28;28.70;35.10
1614;DHT22;800;48.824;9.346;2023-05-15T11:48:32;28.50;33.30
1614;DHT22;800;48.824;9.346;2023-05-15T11:50:59;28.70;33.20
1614;DHT22;800;48.824;9.346;2023-05-15T11:53:25;29.00;33.00
1614;DHT22;800;48.824;9.346;2023-05-15T11:55:52;29.20;34.10
1614;DHT22;800;48.824;9.346;2023-05-15T11:58:20;29.10;32.60
1614;DHT22;800;48.824;9.346;2023-05-15T12:00:47;29.00;32.20
1614;DHT22;800;48.824;9.346;2023-05-15T12:03:14;28.90;31.90
1614;DHT22;800;48.824;9.346;2023-05-15T12:05:40;28.90;33.50
1614;DHT22;800;48.824;9.346;2023-05-15T12:08:10;28.90;33.30
1614;DHT22;800;48.824;9.346;2023-05-15T12:10:43;28.90;32.40
1614;DHT22;800;48.824;9.346;2023-05-15T12:13:13;28.40;31.30
1614;DHT22;800;48.824;9.346;2023-05-15T12:15:42;28.20;32.40
1614;DHT22;800;48.824;9.346;2023-05-15T12:18:09;27.50;31.80
1614;DHT22;800;48.824;9.346;2023-05-15T12:20:36;27.00;31.80
1614;DHT22;800;48.824;9.346;2023-05-15T12:23:03;27.00;34.90
1614;DHT22;800;48.824;9.346;2023-05-15T12:25:29;27.00;33.40
1614;DHT22;800;48.824;9.346;2023-05-15T12:27:55;26.90;33.30
1614;DHT22;800;48.824;9.346;2023-05-15T12:30:22;26.90;33.70
1614;DHT22;800;48.824;9.346;2023-05-15T12:32:48;26.90;35.10
1614;DHT22;800;48.824;9.346;2023-05-15T12:35:15;26.80;35.90
1614;DHT22;800;48.824;9.346;2023-05-15T12:37:41;26.90;35.30
1614;DHT22;800;48.824;9.346;2023-05-15T12:40:07;26.80;34.80
1614;DHT22;800;48.824;9.346;2023-05-15T12:42:53;26.80;35.10
1614;DHT22;800;48.824;9.346;2023-05-15T12:45:20;26.10;33.80
1614;DHT22;800;48.824;9.346;2023-05-15T12:47:48;25.70;35.30
1614;DHT22;800;48.824;9.346;2023-05-15T12:50:18;25.60;37.50
1614;DHT22;800;48.824;9.346;2023-05-15T12:52:52;25.70;38.40
1614;DHT22;800;48.824;9.346;2023-05-15T12:55:23;26.20;38.70
1614;DHT22;800;48.824;9.346;2023-05-15T12:57:51;26.30;37.50
1614;DHT22;800;48.824;9.346;2023-05-15T13:00:17;26.30;36.80
1614;DHT22;800;48.824;9.346;2023-05-15T13:02:45;26.30;35.90
1614;DHT22;800;48.824;9.346;2023-05-15T13:05:12;26.20;35.90
1614;DHT22;800;48.824;9.346;2023-05-15T13:07:41;26.20;36.30
1614;DHT22;800;48.824;9.346;2023-05-15T13:10:08;26.40;36.90
1614;DHT22;800;48.824;9.346;2023-05-15T13:12:44;26.40;36.40
1614;DHT22;800;48.824;9.346;2023-05-15T13:15:35;26.60;36.20
1614;DHT22;800;48.824;9.346;2023-05-15T13:18:10;26.70;36.30
1614;DHT22;800;48.824;9.346;2023-05-15T13:20:41;26.90;37.70
1614;DHT22;800;48.824;9.346;2023-05-15T13:23:08;27.20;36.90
1614;DHT22;800;48.824;9.346;2023-05-15T13:25:34;27.40;35.50
1614;DHT22;800;48.824;9.346;2023-05-15T13:28:02;27.30;35.60
1614;DHT22;800;48.824;9.346;2023-05-15T13:30:29;27.30;34.60
1614;DHT22;800;48.824;9.346;2023-05-15T13:32:54;27.30;34.60
1614;DHT22;800;48.824;9.346;2023-05-15T13:35:20;27.30;34.70
1614;DHT22;800;48.824;9.346;2023-05-15T13:37:46;27.50;35.20
1614;DHT22;800;48.824;9.346;2023-05-15T13:40:12;27.60;35.80
1614;DHT22;800;48.824;9.346;2023-05-15T13:42:38;27.70;36.50
1614;DHT22;800;48.824;9.346;2023-05-15T13:45:05;28.00;35.60
1614;DHT22;800;48.824;9.346;2023-05-15T13:47:31;28.00;34.80
1614;DHT22;800;48.824;9.346;2023-05-15T13:49:57;28.00;35.10
1614;DHT22;800;48.824;9.346;2023-05-15T13:52:23;28.20;34.70
1614;DHT22;800;48.824;9.346;2023-05-15T13:54:48;28.40;34.00
1614;DHT22;800;48.824;9.346;2023-05-15T13:57:14;28.70;31.10
1614;DHT22;800;48.824;9.346;2023-05-15T13:59:40;28.70;31.60
1614;DHT22;800;48.824;9.346;2023-05-15T14:02:05;28.70;30.90
1614;DHT22;800;48.824;9.346;2023-05-15T14:04:31;28.80;31.20
1614;DHT22;800;48.824;9.346;2023-05-15T14:06:58;29.00;31.40
1614;DHT22;800;48.824;9.346;2023-05-15T14:09:23;29.00;30.30
1614;DHT22;800;48.824;9.346;2023-05-15T14:11:49;29.00;30.70
1614;DHT22;800;48.824;9.346;2023-05-15T14:14:14;29.20;31.00
1614;DHT22;800;48.824;9.346;2023-05-15T14:16:40;29.20;30.90
1614;DHT22;800;48.824;9.346;2023-05-15T14:19:05;29.20;31.50
1614;DHT22;800;48.824;9.346;2023-05-15T14:21:31;29.00;31.30
1614;DHT22;800;48.824;9.346;2023-05-15T14:23:57;29.00;30.70
1614;DHT22;800;48.824;9.346;2023-05-15T14:26:22;28.90;30.50
1614;DHT22;800;48.824;9.346;2023-05-15T14:28:48;29.00;32.00
1614;DHT22;800;48.824;9.346;2023-05-15T14:31:13;29.00;32.30
1614;DHT22;800;48.824;9.346;2023-05-15T14:33:39;28.90;31.00
1614;DHT22;800;48.824;9.346;2023-05-15T14:36:05;28.70;31.30
1614;DHT22;800;48.824;9.346;2023-05-15T14:38:31;28.20;29.90
1614;DHT22;800;48.824;9.346;2023-05-15T14:40:57;28.10;31.50
1614;DHT22;800;48.824;9.346;2023-05-15T14:43:22;28.20;32.40
1614;DHT22;800;48.824;9.346;2023-05-15T14:45:49;28.20;32.10
1614;DHT22;800;48.824;9.346;2023-05-15T14:48:16;28.20;31.50
1614;DHT22;800;48.824;9.346;2023-05-15T14:50:41;28.20;31.40
1614;DHT22;800;48.824;9.346;2023-05-15T14:53:07;28.30;32.00
1614;DHT22;800;48.824;9.346;2023-05-15T14:55:32;28.20;32.10
1614;DHT22;800;48.824;9.346;2023-05-15T14:57:58;28.30;31.70
1614;DHT22;800;48.824;9.346;2023-05-15T15:00:24;28.40;32.80
1614;DHT22;800;48.824;9.346;2023-05-15T15:02:49;28.50;32.30
1614;DHT22;800;48.824;9.346;2023-05-15T15:05:15;28.60;32.70
1614;DHT22;800;48.824;9.346;2023-05-15T15:07:58;28.60;32.00
1614;DHT22;800;48.824;9.346;2023-05-15T15:10:25;28.60;33.00
1614;DHT22;800;48.824;9.346;2023-05-15T15:12:50;28.40;31.90
1614;DHT22;800;48.824;9.346;2023-05-15T15:15:16;27.90;33.70
1614;DHT22;800;48.824;9.346;2023-05-15T15:17:42;27.30;35.20
1614;DHT22;800;48.824;9.346;2023-05-15T15:20:08;26.90;36.30
1614;DHT22;800;48.824;9.346;2023-05-15T15:22:34;26.30;37.60
1614;DHT22;800;48.824;9.346;2023-05-15T15:25:00;26.10;38.30
1614;DHT22;800;48.824;9.346;2023-05-15T15:27:26;25.70;39.10
1614;DHT22;800;48.824;9.346;2023-05-15T15:29:52;25.40;42.80
1614;DHT22;800;48.824;9.346;2023-05-15T15:32:19;25.00;46.20
1614;DHT22;800;48.824;9.346;2023-05-15T15:34:44;24.60;46.80
1614;DHT22;800;48.824;9.346;2023-05-15T15:37:10;24.30;47.60
1614;DHT22;800;48.824;9.346;2023-05-15T15:39:35;24.20;48.10
1614;DHT22;800;48.824;9.346;2023-05-15T15:42:01;23.80;47.80
1614;DHT22;800;48.824;9.346;2023-05-15T15:44:27;23.70;47.60
1614;DHT22;800;48.824;9.346;2023-05-15T15:46:52;23.50;47.70
1614;DHT22;800;48.824;9.346;2023-05-15T15:49:18;23.40;48.30
1614;DHT22;800;48.824;9.346;2023-05-15T15:51:43;23.30;48.30
1614;DHT22;800;48.824;9.346;2023-05-15T15:54:09;23.20;48.20
1614;DHT22;800;48.824;9.346;2023-05-15T15:56:34;23.20;49.20
1614;DHT22;800;48.824;9.346;2023-05-15T15:59:00;23.20;49.20
1614;DHT22;800;48.824;9.346;2023-05-15T16:01:26;23.00;48.60
1614;DHT22;800;48.824;9.346;2023-05-15T16:03:52;23.20;49.20
1614;DHT22;800;48.824;9.346;2023-05-15T16:06:17;23.30;49.20
1614;DHT22;800;48.824;9.346;2023-05-15T16:08:43;23.40;49.30
1614;DHT22;800;48.824;9.346;2023-05-15T16:11:08;23.50;49.60
1614;DHT22;800;48.824;9.346;2023-05-15T16:13:34;23.60;50.60
1614;DHT22;800;48.824;9.346;2023-05-15T16:16:00;23.60;49.60
1614;DHT22;800;48.824;9.346;2023-05-15T16:18:25;23.60;48.60
1614;DHT22;800;48.824;9.346;2023-05-15T16:20:51;23.20;49.30
1614;DHT22;800;48.824;9.346;2023-05-15T16:23:17;23.30;49.80
1614;DHT22;800;48.824;9.346;2023-05-15T16:25:44;23.40;50.40
1614;DHT22;800;48.824;9.346;2023-05-15T16:28:09;23.30;50.60
1614;DHT22;800;48.824;9.346;2023-05-15T16:30:35;23.30;51.00
1614;DHT22;800;48.824;9.346;2023-05-15T16:33:00;23.40;50.80
1614;DHT22;800;48.824;9.346;2023-05-15T16:35:26;23.50;50.90
1614;DHT22;800;48.824;9.346;2023-05-15T16:37:52;23.50;51.00
1614;DHT22;800;48.824;9.346;2023-05-15T16:40:17;23.50;51.10
1614;DHT22;800;48.824;9.346;2023-05-15T16:42:43;23.40;50.90
1614;DHT22;800;48.824;9.346;2023-05-15T16:45:09;23.30;50.80
1614;DHT22;800;48.824;9.346;2023-05-15T16:47:36;23.30;51.90